Time;durP1;ratioP1;P1;durP2;ratioP2;P2;SDS_P1;SDS_P2;PMS_P1;PMS_P2;Temp;Humidity;BMP_temperature;BMP_pressure;BME280_temperature;BME280_humidity;BME280_pressure;Samples;Min_cycle;Max_cycle;Signal;HPM_P1;HPM_P2
2023/02/06 00:01:45;;;;;;;8.50;4.38;;;;;;;-3.10;74.08;101556.94;4989548;28;20031;-83
2023/02/06 00:04:11;;;;;;;8.95;4.97;;;;;;;-3.23;74.20;101539.84;4971461;28;20094;-81
2023/02/06 00:06:39;;;;;;;17.30;5.20;;;;;;;-3.26;74.53;101538.19;4993242;28;20069;-83
2023/02/06 00:09:06;;;;;;;11.68;5.47;;;;;;;-3.24;74.37;101519.72;4987916;28;20041;-82
2023/02/06 00:11:32;;;;;;;11.00;5.55;;;;;;;-3.08;74.45;101517.44;5007951;28;20423;-81
2023/02/06 00:13:59;;;;;;;8.93;4.85;;;;;;;-3.16;74.58;101517.72;5008576;28;20542;-81
2023/02/06 00:16:31;;;;;;;11.68;6.15;;;;;;;-3.09;74.65;101510.44;5009955;28;20060;-81
2023/02/06 00:18:58;;;;;;;10.40;6.03;;;;;;;-3.08;74.35;101541.97;5008294;28;20107;-81
2023/02/06 00:21:25;;;;;;;10.05;4.68;;;;;;;-3.04;74.46;101548.88;5007803;28;20056;-82
2023/02/06 00:23:55;;;;;;;11.73;5.82;;;;;;;-3.08;74.32;101536.72;4970803;28;20116;-83
2023/02/06 00:26:21;;;;;;;7.72;4.13;;;;;;;-3.10;74.83;101532.41;5005985;28;20064;-81
2023/02/06 00:28:47;;;;;;;11.70;5.90;;;;;;;-3.07;75.08;101540.19;4990038;28;20124;-82
2023/02/06 00:31:13;;;;;;;11.45;5.57;;;;;;;-3.03;74.82;101539.19;5001050;28;20093;-82
2023/02/06 00:33:40;;;;;;;11.90;6.05;;;;;;;-3.26;74.60;101495.25;4987563;28;20061;-83
2023/02/06 00:36:08;;;;;;;11.10;5.32;;;;;;;-3.02;74.57;101523.38;4981919;28;20041;-81
2023/02/06 00:38:35;;;;;;;10.25;5.18;;;;;;;-2.98;74.32;101516.22;5004292;28;20145;-80
2023/02/06 00:41:02;;;;;;;10.93;6.03;;;;;;;-2.99;74.13;101539.03;4998215;28;20084;-82
2023/02/06 00:43:27;;;;;;;9.55;5.60;;;;;;;-3.11;74.02;101507.88;4995011;28;20038;-82
2023/02/06 00:45:58;;;;;;;10.85;4.80;;;;;;;-2.95;73.75;101528.38;5002533;28;20497;-82
2023/02/06 00:48:24;;;;;;;12.40;5.60;;;;;;;-2.94;73.79;101503.81;5010199;28;20497;-82
2023/02/06 00:50:53;;;;;;;10.00;5.10;;;;;;;-2.94;73.74;101517.81;5008107;28;20382;-81
2023/02/06 00:53:18;;;;;;;9.60;4.65;;;;;;;-2.97;73.60;101502.16;4992039;28;20171;-82
2023/02/06 00:55:45;;;;;;;9.73;5.18;;;;;;;-2.95;73.29;101512.59;4990345;28;20046;-81
2023/02/06 00:58:11;;;;;;;11.88;5.88;;;;;;;-2.93;73.34;101530.06;4991165;28;20124;-79
2023/02/06 01:00:36;;;;;;;12.00;5.57;;;;;;;-2.93;73.48;101521.31;5006513;28;20067;-82
2023/02/06 01:03:02;;;;;;;9.23;5.20;;;;;;;-2.96;73.10;101490.69;4990137;28;20296;-84
2023/02/06 01:05:29;;;;;;;10.60;4.20;;;;;;;-2.86;73.07;101497.34;5008536;28;20033;-82
2023/02/06 01:07:55;;;;;;;9.30;4.65;;;;;;;-3.03;73.19;101474.28;5027981;28;20046;-81
2023/02/06 01:10:20;;;;;;;9.73;5.45;;;;;;;-3.01;73.17;101501.38;5007413;28;20037;-82
2023/02/06 01:12:48;;;;;;;;;;;;;;;-2.88;72.95;101532.53;4995735;28;20045;-82
2023/02/06 01:15:13;;;;;;;8.45;3.78;;;;;;;-2.87;73.30;101498.28;5026504;28;20450;-81
2023/02/06 01:17:42;;;;;;;9.52;4.60;;;;;;;-2.92;73.49;101509.88;4995041;28;20124;-83
2023/02/06 01:20:10;;;;;;;8.80;5.00;;;;;;;-2.87;73.57;101537.75;5002227;28;20108;-81
2023/02/06 01:22:39;;;;;;;10.05;5.30;;;;;;;-2.87;73.66;101529.84;5026227;28;20042;-81
2023/02/06 01:25:08;;;;;;;11.07;5.70;;;;;;;-2.87;73.45;101521.97;5012697;28;20137;-83
2023/02/06 01:27:36;;;;;;;9.20;4.50;;;;;;;-2.89;73.35;101523.78;4993688;28;20535;-82
2023/02/06 01:30:02;;;;;;;11.18;5.28;;;;;;;-2.83;73.43;101526.22;5011990;28;20100;-83
2023/02/06 01:32:31;;;;;;;9.23;4.43;;;;;;;-2.72;73.06;101535.50;4975391;28;20034;-81
2023/02/06 01:34:57;;;;;;;8.20;4.57;;;;;;;-2.81;73.24;101502.44;5028820;28;20029;-81
2023/02/06 01:37:24;;;;;;;9.97;5.33;;;;;;;-2.69;72.76;101522.22;4995419;28;20099;-81
2023/02/06 01:39:50;;;;;;;7.53;3.80;;;;;;;-2.77;72.81;101507.53;4991888;28;20285;-84
2023/02/06 01:42:17;;;;;;;9.60;4.90;;;;;;;-2.73;72.47;101513.56;4988308;28;20469;-82
2023/02/06 01:44:44;;;;;;;10.95;4.80;;;;;;;-2.63;72.77;101528.13;5001229;28;20379;-82
2023/02/06 01:47:13;;;;;;;6.97;3.33;;;;;;;-2.68;72.62;101516.91;5005576;28;20045;-82
2023/02/06 01:49:42;;;;;;;9.50;5.28;;;;;;;-2.70;72.56;101515.25;5011030;28;20083;-83
2023/02/06 01:52:17;;;;;;;11.50;5.30;;;;;;;-2.69;72.79;101506.41;4997461;28;20409;-82
2023/02/06 01:54:43;;;;;;;11.65;4.78;;;;;;;-2.67;72.59;101517.75;5014362;28;20064;-80
2023/02/06 01:57:09;;;;;;;;;;;;;;;-2.59;72.47;101531.50;4984212;28;20063;-80
2023/02/06 01:59:34;;;;;;;;;;;;;;;-2.57;72.53;101538.44;5011920;28;19996;-82
2023/02/06 02:02:01;;;;;;;;;;;;;;;-2.65;72.96;101519.41;5017955;28;19905;-82
2023/02/06 02:04:26;;;;;;;;;;;;;;;-2.64;72.67;101525.56;5015151;28;19913;-82
2023/02/06 02:07:10;;;;;;;8.32;4.90;;;;;;;-2.74;73.05;101508.34;4997402;28;19913;-81
2023/02/06 02:09:36;;;;;;;9.55;4.68;;;;;;;-2.63;72.95;101511.47;5018505;28;20045;-81
2023/02/06 02:12:03;;;;;;;7.87;4.47;;;;;;;-2.60;73.04;101517.50;5009583;28;20037;-83
2023/02/06 02:14:31;;;;;;;10.85;4.75;;;;;;;-2.57;72.94;101530.53;5014271;28;20105;-82
2023/02/06 02:17:23;;;;;;;12.43;5.25;;;;;;;-2.51;72.87;101504.91;5007691;28;20049;-80
2023/02/06 02:19:57;;;;;;;7.85;4.18;;;;;;;-2.61;73.15;101517.53;4945286;29;20035;-81
2023/02/06 02:22:50;;;;;;;8.45;4.47;;;;;;;-2.60;73.15;101533.28;5023787;28;20038;-80
2023/02/06 02:25:38;;;;;;;7.60;4.25;;;;;;;-2.55;72.98;101525.22;5023988;28;20046;-80
2023/02/06 02:28:03;;;;;;;8.75;4.95;;;;;;;-2.58;72.77;101513.00;5024368;28;20138;-82
2023/02/06 02:30:32;;;;;;;10.33;4.43;;;;;;;-2.58;72.76;101513.00;5033966;28;20033;-82
2023/02/06 02:33:42;;;;;;;10.15;5.60;;;;;;;-2.55;72.79;101522.59;5024897;28;20060;-83
2023/02/06 02:36:17;;;;;;;8.68;4.60;;;;;;;-2.66;72.81;101485.25;5030812;28;20041;-83
2023/02/06 02:38:54;;;;;;;8.40;4.38;;;;;;;-2.59;72.78;101492.03;5004681;28;20116;-82
2023/02/06 02:41:38;;;;;;;8.35;4.53;;;;;;;-2.60;73.01;101525.41;5003632;28;20051;-80
2023/02/06 02:44:08;;;;;;;10.88;4.90;;;;;;;-2.62;73.15;101519.31;5009769;28;20065;-82
2023/02/06 02:46:39;;;;;;;8.50;4.53;;;;;;;-2.60;73.12;101516.63;5013496;28;20037;-83
2023/02/06 02:49:13;;;;;;;8.38;4.68;;;;;;;-2.58;73.34;101528.81;4984698;28;20037;-82
2023/02/06 02:51:40;;;;;;;8.68;4.25;;;;;;;-2.61;73.20;101514.91;5013523;28;20033;-82
2023/02/06 02:54:06;;;;;;;8.50;4.63;;;;;;;-2.66;72.92;101506.31;4996374;28;20030;-83
2023/02/06 02:56:32;;;;;;;9.32;5.28;;;;;;;-2.62;72.86;101519.31;5009472;28;20036;-83
2023/02/06 02:59:24;;;;;;;10.63;4.85;;;;;;;-2.59;73.22;101494.66;4996637;28;20044;-82
2023/02/06 03:01:59;;;;;;;8.23;4.20;;;;;;;-2.72;72.97;101503.91;4997740;28;20410;-81
2023/02/06 03:04:44;;;;;;;7.40;4.18;;;;;;;-2.64;72.99;101520.28;5011688;28;20033;-81
2023/02/06 03:07:39;;;;;;;9.75;5.20;;;;;;;-2.57;72.95;101527.91;4999846;28;20062;-80
2023/02/06 03:10:33;;;;;;;9.13;4.97;;;;;;;-2.55;73.17;101544.50;4992255;28;20042;-82
2023/02/06 03:13:05;;;;;;;10.63;5.28;;;;;;;-2.60;73.35;101537.66;4984182;28;20057;-82
2023/02/06 03:16:20;;;;;;;9.65;4.57;;;;;;;-2.59;73.10;101519.19;5006697;28;20116;-81
2023/02/06 03:18:50;;;;;;;8.32;4.10;;;;;;;-2.59;73.26;101515.72;4974722;28;20034;-82
2023/02/06 03:21:18;;;;;;;8.85;5.15;;;;;;;-2.65;73.43;101523.81;4973688;28;20046;-82
2023/02/06 03:23:45;;;;;;;9.20;4.18;;;;;;;-2.59;73.48;101513.09;4990186;28;20124;-81
2023/02/06 03:26:13;;;;;;;8.07;4.63;;;;;;;-2.58;73.39;101520.91;4956743;28;20555;-81
2023/02/06 03:28:42;;;;;;;10.80;5.30;;;;;;;-2.59;72.91;101527.09;4974022;28;20030;-82
2023/02/06 03:31:12;;;;;;;11.38;5.65;;;;;;;-2.64;73.15;101507.13;4972469;28;20030;-81
2023/02/06 03:33:47;;;;;;;9.02;4.57;;;;;;;-2.52;72.94;101533.00;4986964;28;20022;-82
2023/02/06 03:36:16;;;;;;;10.85;5.35;;;;;;;-2.55;73.00;101514.69;4989467;28;20106;-81
2023/02/06 03:38:45;;;;;;;10.93;6.03;;;;;;;-2.62;72.86;101526.38;4988088;28;20410;-84
2023/02/06 03:41:11;;;;;;;7.85;4.45;;;;;;;-2.48;72.97;101539.88;4970331;28;20030;-83
2023/02/06 03:43:37;;;;;;;6.90;3.78;;;;;;;-2.57;73.23;101521.78;4970279;28;20154;-81
2023/02/06 03:46:05;;;;;;;9.87;4.90;;;;;;;-2.58;73.22;101535.84;4980975;28;20030;-82
2023/02/06 03:48:41;;;;;;;11.30;5.35;;;;;;;-2.53;73.09;101554.97;4972814;28;20483;-81
2023/02/06 03:51:30;;;;;;;9.43;5.22;;;;;;;-2.50;72.89;101486.41;4973090;28;20104;-81
2023/02/06 03:53:56;;;;;;;9.32;4.75;;;;;;;-2.46;72.61;101553.88;4962925;28;20042;-81
2023/02/06 03:56:28;;;;;;;9.27;4.45;;;;;;;-2.48;72.76;101524.09;4959970;28;20034;-82
2023/02/06 03:58:55;;;;;;;9.52;5.03;;;;;;;-2.47;72.69;101532.84;4973113;28;20077;-81
2023/02/06 04:01:22;;;;;;;7.78;4.43;;;;;;;-2.54;72.94;101537.47;4989672;28;20121;-81
2023/02/06 04:03:47;;;;;;;9.45;4.72;;;;;;;-2.55;73.23;101559.47;4982291;28;20034;-82
2023/02/06 04:06:14;;;;;;;7.13;4.05;;;;;;;-2.55;72.80;101536.63;4985377;28;20045;-82
2023/02/06 04:08:40;;;;;;;9.88;4.65;;;;;;;-2.57;72.66;101553.38;4976746;28;20033;-83
2023/02/06 04:11:08;;;;;;;5.33;2.87;;;;;;;-2.62;72.94;101550.91;5012233;28;20382;-82
2023/02/06 04:13:34;;;;;;;8.82;4.55;;;;;;;-2.54;72.68;101542.72;4997085;28;20284;-81
2023/02/06 04:16:00;;;;;;;8.80;4.60;;;;;;;-2.60;72.94;101554.34;4996973;28;20450;-81
2023/02/06 04:18:25;;;;;;;8.50;4.40;;;;;;;-2.60;72.72;101553.47;5001469;28;20124;-83
2023/02/06 04:20:53;;;;;;;9.00;4.50;;;;;;;-2.69;72.94;101538.88;5024195;28;20045;-82
2023/02/06 04:23:19;;;;;;;11.07;5.30;;;;;;;-2.61;72.18;101554.41;5014380;28;22149;-82
2023/02/06 04:25:45;;;;;;;9.60;4.70;;;;;;;-2.66;71.80;101535.28;4980065;28;20048;-81
2023/02/06 04:28:11;;;;;;;9.05;4.10;;;;;;;-2.62;71.81;101550.06;4995787;28;20417;-83
2023/02/06 04:30:37;;;;;;;7.25;3.00;;;;;;;-2.59;71.61;101568.38;5026013;28;20095;-83
2023/02/06 04:33:02;;;;;;;7.33;4.23;;;;;;;-2.68;71.66;101556.38;4995095;28;20045;-82
2023/02/06 04:35:28;;;;;;;10.23;4.87;;;;;;;-2.73;71.91;101573.25;5012551;28;20291;-82
2023/02/06 04:37:54;;;;;;;5.88;3.42;;;;;;;-2.74;71.62;101566.25;5028412;28;20397;-82
2023/02/06 04:40:19;;;;;;;9.40;4.70;;;;;;;-2.79;71.85;101579.59;5007411;28;20045;-82
2023/02/06 04:42:45;;;;;;;7.60;3.83;;;;;;;-2.89;72.01;101530.81;5036875;28;20041;-81
2023/02/06 04:45:10;;;;;;;7.20;3.35;;;;;;;-2.78;71.90;101582.19;5007926;28;20286;-83
2023/02/06 04:47:37;;;;;;;8.77;4.60;;;;;;;-2.83;72.07;101565.69;5026009;28;20139;-82
2023/02/06 04:50:03;;;;;;;8.65;4.13;;;;;;;-2.86;71.95;101547.34;5004287;28;20440;-81
2023/02/06 04:52:28;;;;;;;;;;;;;;;-2.93;72.34;101577.41;5004320;28;20045;-82
2023/02/06 04:54:56;;;;;;;8.45;4.10;;;;;;;-2.88;72.38;101543.94;5005147;28;19920;-81
2023/02/06 04:57:25;;;;;;;7.57;4.13;;;;;;;-2.94;72.08;101556.44;5017914;28;20077;-83
2023/02/06 04:59:51;;;;;;;10.35;4.63;;;;;;;-2.92;72.88;101594.94;5003775;28;20034;-85
2023/02/06 05:02:17;;;;;;;9.77;4.82;;;;;;;-3.00;73.01;101554.88;4996010;28;20056;-81
2023/02/06 05:04:44;;;;;;;10.40;4.53;;;;;;;-2.98;72.70;101568.84;4994148;28;20124;-82
2023/02/06 05:07:10;;;;;;;9.07;5.25;;;;;;;-3.05;73.29;101515.56;5008952;28;20042;-84
2023/02/06 05:09:35;;;;;;;10.50;4.95;;;;;;;-3.03;72.87;101589.19;4995885;28;20128;-80
2023/02/06 05:12:01;;;;;;;7.23;3.67;;;;;;;-3.01;72.86;101598.75;4992756;28;20044;-83
2023/02/06 05:14:27;;;;;;;9.55;4.78;;;;;;;-3.11;72.90;101615.75;5005918;28;20350;-85
2023/02/06 05:16:53;;;;;;;10.93;4.47;;;;;;;-3.06;72.69;101600.66;5030987;28;20532;-84
2023/02/06 05:19:19;;;;;;;11.30;5.67;;;;;;;-3.08;73.19;101591.09;4989981;28;20058;-82
2023/02/06 05:21:46;;;;;;;11.35;5.70;;;;;;;-2.98;73.97;101595.16;5009980;28;20037;-81
2023/02/06 05:24:11;;;;;;;;;;;;;;;-2.80;72.56;101605.06;5030257;28;20144;-83
2023/02/06 05:26:39;;;;;;;8.10;4.15;;;;;;;-2.74;72.21;101600.47;5007252;28;19973;-82
2023/02/06 05:29:07;;;;;;;8.77;3.85;;;;;;;-2.81;71.83;101592.81;5010183;28;20037;-85
2023/02/06 05:31:34;;;;;;;10.63;4.88;;;;;;;-2.63;71.86;101611.50;5029405;28;20067;-81
2023/02/06 05:34:00;;;;;;;10.27;4.72;;;;;;;-2.84;72.19;101556.06;4997211;28;20026;-82
2023/02/06 05:36:28;;;;;;;12.90;5.15;;;;;;;-2.64;71.32;101618.56;4992807;28;20647;-83
2023/02/06 05:38:54;;;;;;;9.35;4.28;;;;;;;-2.58;71.79;101610.44;4998089;28;20056;-83
2023/02/06 05:41:19;;;;;;;12.95;6.13;;;;;;;-2.57;71.14;101612.16;5015511;28;20389;-84
2023/02/06 05:43:45;;;;;;;7.77;4.40;;;;;;;-2.60;71.12;101608.75;5012355;28;20135;-83
2023/02/06 05:46:13;;;;;;;8.30;4.23;;;;;;;-2.50;70.76;101628.63;4997341;28;20042;-81
2023/02/06 05:48:47;;;;;;;7.97;4.38;;;;;;;-2.62;70.48;101592.19;5000411;28;20416;-85
2023/02/06 05:51:12;;;;;;;12.02;4.13;;;;;;;-2.54;70.18;101627.00;5010855;28;20109;-82
2023/02/06 05:53:38;;;;;;;12.80;4.57;;;;;;;-2.41;69.37;101591.41;4984183;28;20043;-84
2023/02/06 05:56:04;;;;;;;7.15;3.83;;;;;;;-2.05;67.74;101614.69;5002768;28;20116;-83
2023/02/06 05:58:30;;;;;;;10.55;4.72;;;;;;;-1.77;66.83;101609.25;4998047;28;20432;-79
2023/02/06 06:00:57;;;;;;;10.43;5.03;;;;;;;-1.88;67.24;101621.13;5012740;28;20136;-80
2023/02/06 06:03:25;;;;;;;8.98;4.43;;;;;;;-1.68;67.00;101600.13;5014449;28;20037;-83
2023/02/06 06:05:52;;;;;;;9.95;4.47;;;;;;;-1.43;66.25;101607.91;5026372;28;20080;-84
2023/02/06 06:08:18;;;;;;;8.05;4.93;;;;;;;-1.12;65.76;101633.09;5017150;28;20046;-85
2023/02/06 06:10:43;;;;;;;9.25;4.75;;;;;;;-1.16;65.77;101629.72;5016941;28;20061;-85
2023/02/06 06:13:09;;;;;;;11.07;4.93;;;;;;;-0.83;64.91;101612.56;5021694;28;20038;-88
2023/02/06 06:15:35;;;;;;;10.27;5.22;;;;;;;-0.73;64.89;101603.31;5006347;28;20106;-84
2023/02/06 06:18:02;;;;;;;10.70;5.57;;;;;;;-0.81;65.77;101627.41;5015889;28;20033;-86
2023/02/06 06:20:28;;;;;;;8.63;4.68;;;;;;;-0.84;65.99;101611.69;5018808;28;20065;-78
2023/02/06 06:22:54;;;;;;;10.65;5.60;;;;;;;-0.63;65.37;101625.78;5001524;28;20033;-86
2023/02/06 06:25:19;;;;;;;11.90;5.75;;;;;;;-0.38;64.39;101630.00;5026599;28;20029;-84
2023/02/06 06:27:45;;;;;;;11.90;5.17;;;;;;;-0.23;63.80;101651.31;5030994;28;20033;-83
2023/02/06 06:30:11;;;;;;;11.05;5.88;;;;;;;0.10;62.64;101642.81;5031584;28;20109;-84
2023/02/06 06:32:37;;;;;;;11.25;6.03;;;;;;;-0.25;63.18;101663.75;5026630;28;20033;-83
2023/02/06 06:35:02;;;;;;;14.90;5.70;;;;;;;-0.60;64.94;101677.63;5026386;28;20025;-86
2023/02/06 06:37:28;;;;;;;11.45;6.13;;;;;;;-0.67;65.77;101691.06;5024870;28;20494;-84
2023/02/06 06:39:53;;;;;;;12.47;5.97;;;;;;;-1.25;67.74;101661.75;5007049;28;20053;-85
2023/02/06 06:42:19;;;;;;;11.80;6.00;;;;;;;-1.36;69.15;101687.69;5030700;28;20568;-85
2023/02/06 06:44:44;;;;;;;12.87;7.03;;;;;;;-1.47;70.11;101688.13;5028772;28;20038;-87
2023/02/06 06:47:10;;;;;;;10.70;5.50;;;;;;;-1.59;70.37;101673.63;5025325;28;20117;-87
2023/02/06 06:49:36;;;;;;;16.97;6.67;;;;;;;-0.19;67.07;101680.25;5026134;28;20042;-87
2023/02/06 06:52:01;;;;;;;14.07;6.10;;;;;;;0.87;63.47;101700.13;5020689;28;20049;-87
2023/02/06 06:54:27;;;;;;;13.40;7.07;;;;;;;0.66;62.69;101686.09;5027861;28;20388;-86
2023/02/06 06:56:52;;;;;;;13.13;6.23;;;;;;;0.69;62.86;101693.03;5027307;28;20030;-87
2023/02/06 06:59:18;;;;;;;12.77;6.53;;;;;;;0.99;60.82;101711.91;5025935;28;20037;-86
2023/02/06 07:01:43;;;;;;;11.80;6.00;;;;;;;0.32;62.57;101707.97;5029246;28;20034;-87
2023/02/06 07:04:09;;;;;;;11.80;5.63;;;;;;;-0.13;64.08;101712.56;5005121;28;20040;-86
2023/02/06 07:06:34;;;;;;;10.60;5.23;;;;;;;-0.49;64.53;101721.16;5024160;28;20045;-86
2023/02/06 07:09:00;;;;;;;11.35;5.72;;;;;;;-0.58;65.57;101723.31;5025458;28;20044;-87
2023/02/06 07:11:25;;;;;;;14.33;6.53;;;;;;;-0.61;66.49;101745.41;5007670;28;20494;-87
2023/02/06 07:13:51;;;;;;;12.63;6.07;;;;;;;-0.76;67.58;101752.19;5039637;28;20041;-89
2023/02/06 07:16:16;;;;;;;14.40;7.17;;;;;;;-0.71;67.51;101752.00;5026759;28;20299;-87
2023/02/06 07:18:42;;;;;;;11.57;5.57;;;;;;;-0.54;68.08;101769.78;5029853;28;20041;-88
2023/02/06 07:21:08;;;;;;;11.73;6.40;;;;;;;-0.61;67.76;101778.91;5015395;28;20029;-85
2023/02/06 07:23:37;;;;;;;11.30;5.32;;;;;;;-0.68;67.56;101787.09;5027700;28;20025;-87
2023/02/06 07:26:02;;;;;;;13.10;6.50;;;;;;;-0.61;67.32;101786.81;5025142;28;20129;-87
2023/02/06 07:28:28;;;;;;;16.17;6.80;;;;;;;-0.62;67.11;101807.09;5027992;28;20148;-86
2023/02/06 07:30:54;;;;;;;12.82;6.13;;;;;;;-0.64;68.50;101804.50;4998252;28;20272;-86
2023/02/06 07:33:19;;;;;;;12.17;6.60;;;;;;;-0.58;67.54;101807.84;5046402;28;20033;-88
2023/02/06 07:35:45;;;;;;;11.88;5.60;;;;;;;-0.63;67.22;101810.69;5026236;28;20085;-86
2023/02/06 07:38:11;;;;;;;13.35;6.65;;;;;;;-0.53;67.33;101821.72;5026189;28;20049;-86
2023/02/06 07:40:36;;;;;;;14.10;6.87;;;;;;;-0.49;67.17;101837.41;5045687;28;20034;-86
2023/02/06 07:43:05;;;;;;;14.07;6.50;;;;;;;-0.62;68.14;101843.22;5025792;28;20033;-84
2023/02/06 07:45:30;;;;;;;13.00;6.30;;;;;;;-0.67;67.90;101862.75;5024881;28;20040;-87
2023/02/06 07:47:56;;;;;;;12.90;6.40;;;;;;;-0.78;67.24;101843.81;5034819;28;20489;-88
2023/02/06 07:50:21;;;;;;;12.50;6.03;;;;;;;-0.59;68.46;101846.59;5046604;28;20037;-85
2023/02/06 07:52:47;;;;;;;12.00;6.20;;;;;;;-0.27;67.00;101849.75;5029057;28;20044;-88
2023/02/06 07:55:12;;;;;;;10.83;6.03;;;;;;;0.59;65.33;101862.00;5042907;28;20086;-86
2023/02/06 07:57:38;;;;;;;11.90;6.17;;;;;;;3.01;56.84;101838.63;5038685;28;20025;-86
2023/02/06 08:00:04;;;;;;;11.50;6.40;;;;;;;3.70;52.75;101836.56;5039723;28;20029;-86
2023/02/06 08:02:29;;;;;;;12.43;7.25;;;;;;;5.85;48.00;101839.31;5028408;28;20029;-87
2023/02/06 08:04:55;;;;;;;9.40;5.80;;;;;;;6.81;45.04;101847.09;5051789;28;20092;-84
2023/02/06 08:07:20;;;;;;;9.73;5.73;;;;;;;6.86;42.90;101839.59;5047427;28;20048;-86
2023/02/06 08:09:46;;;;;;;10.07;6.15;;;;;;;7.53;41.01;101847.28;5004176;28;20045;-87
2023/02/06 08:12:11;;;;;;;9.80;5.57;;;;;;;8.31;39.03;101853.97;5022300;28;20108;-87
2023/02/06 08:14:36;;;;;;;12.10;6.13;;;;;;;8.99;37.97;101847.81;5038485;28;20029;-86
2023/02/06 08:17:02;;;;;;;9.77;5.88;;;;;;;9.50;36.07;101855.34;5042810;28;20056;-87
2023/02/06 08:19:27;;;;;;;8.55;4.95;;;;;;;9.03;35.34;101873.41;5029212;28;20048;-86
2023/02/06 08:21:53;;;;;;;8.40;5.47;;;;;;;10.51;33.30;101861.31;5038007;28;20037;-86
2023/02/06 08:24:20;;;;;;;8.23;4.95;;;;;;;9.85;32.62;101875.72;5034122;28;20174;-88
2023/02/06 08:26:45;;;;;;;9.98;5.70;;;;;;;9.42;33.50;101873.88;5017872;28;20405;-86
2023/02/06 08:29:11;;;;;;;9.13;5.90;;;;;;;9.15;33.87;101882.28;5018247;28;20037;-84
2023/02/06 08:31:38;;;;;;;7.70;5.28;;;;;;;7.56;36.07;101892.56;5041003;28;20041;-87
2023/02/06 08:34:04;;;;;;;13.70;5.50;;;;;;;7.81;36.48;101892.47;5044290;28;20029;-86
2023/02/06 08:36:31;;;;;;;7.97;4.72;;;;;;;8.75;34.44;101889.94;5016677;28;20038;-85
2023/02/06 08:38:57;;;;;;;8.30;4.80;;;;;;;9.42;32.94;101883.78;5028880;28;20060;-87
2023/02/06 08:41:30;;;;;;;7.20;4.95;;;;;;;9.98;31.66;101864.00;5032181;28;20030;-83
2023/02/06 08:43:57;;;;;;;9.40;6.13;;;;;;;9.67;32.69;101888.00;5012896;28;20033;-88
2023/02/06 08:46:24;;;;;;;11.23;7.10;;;;;;;11.06;30.43;101896.91;5039218;28;20510;-89
2023/02/06 08:49:07;;;;;;;8.18;5.50;;;;;;;10.87;29.69;101869.91;5006151;28;20062;-86
2023/02/06 08:51:34;;;;;;;11.93;5.50;;;;;;;12.54;28.09;101853.91;5017697;28;20033;-86
2023/02/06 08:54:04;;;;;;;10.27;4.90;;;;;;;14.26;26.14;101874.97;5040737;28;20049;-89
2023/02/06 08:56:34;;;;;;;10.18;4.90;;;;;;;11.96;27.39;101862.88;5027626;28;20037;-89
2023/02/06 08:59:01;;;;;;;8.70;5.30;;;;;;;13.70;25.56;101874.25;5005450;28;20132;-86
2023/02/06 09:01:29;;;;;;;9.00;5.20;;;;;;;13.25;24.96;101864.19;5035617;28;20041;-85
2023/02/06 09:03:58;;;;;;;9.30;5.97;;;;;;;12.45;26.54;101888.88;5023386;28;20179;-86
2023/02/06 09:06:27;;;;;;;10.32;5.10;;;;;;;9.88;29.93;101880.88;5000681;28;20493;-86
2023/02/06 09:08:56;;;;;;;10.65;5.75;;;;;;;8.84;32.46;101881.19;4978434;28;20071;-88
2023/02/06 09:11:24;;;;;;;8.13;5.05;;;;;;;9.45;30.82;101881.69;4997551;28;20052;-84
2023/02/06 09:13:52;;;;;;;18.00;5.55;;;;;;;11.87;28.45;101886.16;5015000;28;20057;-88
2023/02/06 09:16:20;;;;;;;8.85;5.35;;;;;;;13.57;25.48;101888.09;4998190;28;20037;-87
2023/02/06 09:18:46;;;;;;;7.60;5.10;;;;;;;12.18;25.93;101868.00;5013500;28;20049;-85
2023/02/06 09:21:17;;;;;;;9.40;5.28;;;;;;;9.94;28.67;101869.59;5031196;28;20049;-79
2023/02/06 09:23:47;;;;;;;12.93;5.38;;;;;;;8.44;32.07;101873.56;5014643;28;20051;-81
2023/02/06 09:26:14;;;;;;;8.65;5.50;;;;;;;7.24;35.63;101868.16;5014352;28;20051;-84
2023/02/06 09:28:40;;;;;;;8.52;4.93;;;;;;;5.33;38.14;101880.91;4981911;28;20045;-86
2023/02/06 09:31:06;;;;;;;10.30;5.53;;;;;;;5.23;39.12;101874.47;5004408;28;20037;-85
2023/02/06 09:33:31;;;;;;;;;;;;;;;3.94;41.89;101874.25;5025474;28;20276;-86
2023/02/06 09:36:00;;;;;;;;;;;;;;;3.85;43.49;101888.91;5045229;28;20281;-86
2023/02/06 09:38:26;;;;;;;12.02;5.47;;;;;;;3.56;44.37;101893.22;5039494;28;19917;-83
2023/02/06 09:41:10;;;;;;;12.70;5.60;;;;;;;2.35;46.93;101873.13;5012935;28;20413;-86
2023/02/06 09:43:35;;;;;;;10.25;5.38;;;;;;;2.15;47.73;101896.19;5003697;28;20428;-85
2023/02/06 09:46:04;;;;;;;9.93;4.23;;;;;;;2.03;47.19;101904.78;5024046;28;20033;-88
2023/02/06 09:48:32;;;;;;;10.73;4.70;;;;;;;1.66;47.35;101899.47;5027592;28;20052;-88
2023/02/06 09:50:58;;;;;;;10.18;4.35;;;;;;;1.48;47.45;101884.44;5025424;28;20025;-88
2023/02/06 09:53:51;;;;;;;8.67;4.20;;;;;;;1.58;47.85;101898.09;5038559;28;20037;-85
2023/02/06 09:56:49;;;;;;;10.07;4.57;;;;;;;1.18;49.06;101889.38;5004531;28;20041;-84
2023/02/06 09:59:14;;;;;;;9.25;4.22;;;;;;;1.51;48.40;101889.56;4997171;28;20044;-84
2023/02/06 10:02:01;;;;;;;8.33;4.50;;;;;;;1.38;49.35;101885.78;5014290;28;20029;-84
2023/02/06 10:05:04;;;;;;;10.32;4.80;;;;;;;1.39;48.72;101880.41;5013077;28;20029;-84
2023/02/06 10:08:13;;;;;;;8.88;4.45;;;;;;;1.55;47.14;101879.72;5029864;28;20056;-88
2023/02/06 10:11:04;;;;;;;16.60;3.88;;;;;;;1.23;46.99;101847.63;5011380;28;20041;-85
2023/02/06 10:13:39;;;;;;;7.95;3.80;;;;;;;1.64;46.27;101879.28;5011079;28;20037;-85
2023/02/06 10:16:19;;;;;;;9.05;4.20;;;;;;;1.75;45.47;101884.88;5030897;28;20034;-87
2023/02/06 10:18:50;;;;;;;7.18;3.55;;;;;;;1.67;45.53;101900.31;5013333;28;20075;-83
2023/02/06 10:21:36;;;;;;;9.32;4.72;;;;;;;1.73;45.45;101893.84;5000074;28;20091;-84
2023/02/06 10:24:16;;;;;;;7.55;3.85;;;;;;;1.56;45.59;101897.31;5017583;28;20128;-81
2023/02/06 10:26:45;;;;;;;8.07;4.00;;;;;;;1.57;45.54;101885.75;5030240;28;20082;-84
2023/02/06 10:29:25;;;;;;;8.98;4.13;;;;;;;1.43;46.40;101897.91;5001147;28;20033;-85
2023/02/06 10:31:56;;;;;;;9.07;4.18;;;;;;;1.18;47.75;101887.56;5001073;28;20030;-86
2023/02/06 10:34:24;;;;;;;8.20;4.07;;;;;;;1.07;48.56;101902.22;5036275;28;20045;-85
2023/02/06 10:37:19;;;;;;;9.50;4.55;;;;;;;1.20;49.11;101895.47;5035923;28;20085;-82
2023/02/06 10:40:02;;;;;;;7.43;3.63;;;;;;;0.96;49.56;101911.53;5023139;28;20046;-84
2023/02/06 10:42:30;;;;;;;10.40;5.35;;;;;;;1.09;49.82;101921.56;5037315;28;20044;-84
2023/02/06 10:45:01;;;;;;;10.15;4.63;;;;;;;0.91;50.29;101918.78;5017296;28;20083;-84
2023/02/06 10:47:48;;;;;;;7.70;3.78;;;;;;;0.80;49.88;101899.91;5033694;28;20601;-83
2023/02/06 10:50:25;;;;;;;11.60;4.82;;;;;;;0.88;50.37;101934.81;5031758;28;20059;-85
2023/02/06 10:52:50;;;;;;;10.32;4.95;;;;;;;0.96;50.54;101930.06;5021225;28;20508;-84
2023/02/06 10:55:36;;;;;;;11.07;5.17;;;;;;;0.85;50.59;101911.16;5015217;28;20037;-85
2023/02/06 10:58:09;;;;;;;;;;;;;;;0.96;50.34;101918.59;5016890;28;20413;-83
2023/02/06 11:00:38;;;;;;;11.75;6.40;;;;;;;0.95;51.04;101928.34;5010614;28;19928;-84
2023/02/06 11:03:12;;;;;;;9.55;4.80;;;;;;;0.88;51.45;101921.59;5015742;28;20381;-83
2023/02/06 11:05:37;;;;;;;9.88;5.10;;;;;;;1.43;50.07;101929.69;5008650;28;20040;-81
2023/02/06 11:08:30;;;;;;;11.83;4.87;;;;;;;1.38;49.55;101917.56;4999726;28;20042;-82
2023/02/06 11:10:56;;;;;;;10.65;5.40;;;;;;;1.52;49.90;101906.34;5001806;28;20041;-82
2023/02/06 11:13:25;;;;;;;11.27;5.65;;;;;;;1.58;50.54;101911.34;5016512;28;20064;-84
2023/02/06 11:16:01;;;;;;;11.18;5.20;;;;;;;1.53;50.85;101908.06;5015622;28;20029;-84
2023/02/06 11:18:34;;;;;;;12.55;6.00;;;;;;;3.44;47.33;101910.72;5032860;28;20075;-85
2023/02/06 11:21:00;;;;;;;9.75;5.22;;;;;;;4.35;44.34;101882.44;5017771;28;20029;-83
2023/02/06 11:23:27;;;;;;;10.88;5.80;;;;;;;4.39;43.41;101894.63;5014918;28;20118;-83
2023/02/06 11:26:13;;;;;;;11.65;6.32;;;;;;;3.84;44.79;101902.28;5014921;28;20029;-84
2023/02/06 11:28:55;;;;;;;12.43;6.07;;;;;;;4.01;43.82;101891.56;5015819;28;20045;-84
2023/02/06 11:31:43;;;;;;;12.90;6.53;;;;;;;3.32;45.73;101900.75;5014321;28;20056;-85
2023/02/06 11:34:31;;;;;;;12.32;6.50;;;;;;;2.79;47.23;101912.47;4998880;28;20037;-84
2023/02/06 11:37:02;;;;;;;9.95;5.07;;;;;;;2.50;47.14;101910.34;5014514;28;20453;-83
2023/02/06 11:39:31;;;;;;;11.95;6.22;;;;;;;2.33;47.50;101897.94;5014479;28;20045;-85